Time,TemperatureF,DewpointF,PressureIn,WindDirection,WindDirectionDegrees,WindSpeedMPH,WindSpeedGustMPH,Humidity,HourlyPrecipIn,Conditions,Clouds,dailyrainin,SoftwareType,DateUTC
2013-08-22 00:05:00,71.5,70.6,30.16,South,171,0.0,0.0,96,0.00,,,0.00,dv,2013-08-22 04:05:00,
2013-08-22 00:10:00,71.6,70.7,30.17,South,171,0.0,0.0,96,0.00,,,0.00,dv,2013-08-22 04:10:00,
2013-08-22 00:15:00,71.4,70.5,30.16,South,171,0.0,0.0,96,0.00,,,0.00,dv,2013-08-22 04:15:00,
2013-08-22 00:20:00,71.4,70.7,30.16,South,170,0.0,0.0,97,0.00,,,0.00,dv,2013-08-22 04:20:00,
2013-08-22 00:25:00,71.5,70.6,30.16,South,171,0.0,0.0,96,0.00,,,0.00,dv,2013-08-22 04:25:00,
2013-08-22 00:30:00,71.5,70.8,30.16,South,171,0.0,0.0,97,0.00,,,0.00,dv,2013-08-22 04:30:00,
2013-08-22 00:35:00,71.5,70.8,30.16,South,171,0.0,0.0,97,0.00,,,0.00,dv,2013-08-22 04:35:00,
2013-08-22 00:40:00,71.5,70.8,30.16,South,171,0.0,0.0,97,0.00,,,0.00,dv,2013-08-22 04:40:00,
2013-08-22 00:45:00,71.5,71.0,30.16,South,171,0.0,0.0,98,0.00,,,0.00,dv,2013-08-22 04:45:00,
2013-08-22 00:50:00,71.5,71.0,30.16,South,171,0.0,0.0,98,0.00,,,0.00,dv,2013-08-22 04:50:00,
2013-08-22 01:00:00,71.3,70.6,30.17,South,171,0.0,0.0,97,0.00,,,0.00,dv,2013-08-22 05:00:00,
2013-08-22 01:05:00,71.4,70.7,30.16,South,171,0.0,0.0,97,0.00,,,0.00,dv,2013-08-22 05:05:00,
2013-08-22 01:10:00,71.4,70.9,30.16,South,171,0.0,0.0,98,0.00,,,0.00,dv,2013-08-22 05:10:00,
2013-08-22 01:15:00,71.3,70.8,30.16,South,171,0.0,0.0,98,0.00,,,0.00,dv,2013-08-22 05:15:00,
2013-08-22 01:20:00,71.2,70.7,30.16,South,171,0.0,0.0,98,0.00,,,0.00,dv,2013-08-22 05:20:00,
2013-08-22 01:25:00,71.3,70.8,30.17,South,171,0.0,0.0,98,0.00,,,0.00,dv,2013-08-22 05:25:00,
2013-08-22 01:30:00,71.0,70.5,30.16,South,171,0.0,0.0,98,0.00,,,0.00,dv,2013-08-22 05:30:00,
2013-08-22 01:35:00,71.1,70.6,30.16,South,171,0.0,0.0,98,0.00,,,0.00,dv,2013-08-22 05:35:00,
2013-08-22 01:40:00,71.1,70.6,30.17,South,171,0.0,0.0,98,0.00,,,0.00,dv,2013-08-22 05:40:00,
2013-08-22 01:45:00,71.0,70.5,30.16,South,171,0.0,0.0,98,0.00,,,0.00,dv,2013-08-22 05:45:00,
2013-08-22 01:50:00,71.0,70.5,30.16,South,171,0.0,0.0,98,0.00,,,0.00,dv,2013-08-22 05:50:00,
2013-08-22 01:55:00,71.0,70.5,30.16,South,171,0.0,0.0,98,0.00,,,0.00,dv,2013-08-22 05:55:00,
2013-08-22 02:00:00,70.9,70.4,30.16,South,171,0.0,0.0,98,0.00,,,0.00,dv,2013-08-22 06:00:00,
2013-08-22 02:05:00,71.0,70.5,30.16,South,171,0.0,0.0,98,0.00,,,0.00,dv,2013-08-22 06:05:00,
2013-08-22 02:10:00,70.9,70.4,30.16,South,171,0.0,0.0,98,0.00,,,0.00,dv,2013-08-22 06:10:00,
2013-08-22 02:15:00,71.0,70.5,30.16,South,171,0.0,0.0,98,0.00,,,0.00,dv,2013-08-22 06:15:00,
2013-08-22 02:20:00,70.8,70.3,30.16,South,171,0.0,0.0,98,0.00,,,0.00,dv,2013-08-22 06:20:00,
2013-08-22 02:25:00,70.9,70.4,30.15,South,171,0.0,0.0,98,0.00,,,0.00,dv,2013-08-22 06:25:00,
2013-08-22 02:30:00,70.9,70.7,30.15,South,171,0.0,0.0,99,0.00,,,0.00,dv,2013-08-22 06:30:00,
2013-08-22 02:35:00,71.0,70.5,30.16,South,171,0.0,0.0,98,0.00,,,0.00,dv,2013-08-22 06:35:00,
2013-08-22 02:40:00,70.9,70.7,30.15,South,171,0.0,0.0,99,0.00,,,0.00,dv,2013-08-22 06:40:00,
2013-08-22 02:45:00,70.9,70.7,30.15,South,171,0.0,0.0,99,0.00,,,0.00,dv,2013-08-22 06:45:00,
2013-08-22 02:50:00,70.9,70.7,30.15,South,171,0.0,0.0,99,0.00,,,0.00,dv,2013-08-22 06:50:00,
2013-08-22 02:55:00,71.1,70.9,30.15,South,171,0.0,0.0,99,0.00,,,0.00,dv,2013-08-22 06:55:00,
2013-08-22 03:00:00,71.0,70.8,30.15,South,171,0.0,0.0,99,0.00,,,0.00,dv,2013-08-22 07:00:00,
2013-08-22 03:05:00,71.0,70.8,30.15,South,171,0.0,0.0,99,0.00,,,0.00,dv,2013-08-22 07:05:00,
2013-08-22 03:10:00,70.9,70.7,30.16,South,171,0.0,0.0,99,0.00,,,0.00,dv,2013-08-22 07:10:00,
2013-08-22 03:15:00,71.1,70.9,30.15,South,171,0.0,0.0,99,0.00,,,0.00,dv,2013-08-22 07:15:00,
2013-08-22 03:20:00,71.1,70.9,30.15,South,171,0.0,0.0,99,0.00,,,0.00,dv,2013-08-22 07:20:00,
2013-08-22 03:25:00,71.1,70.9,30.15,South,171,0.0,0.0,99,0.00,,,0.00,dv,2013-08-22 07:25:00,
2013-08-22 03:30:00,70.9,70.9,30.15,South,171,0.0,0.0,100,0.00,,,0.00,dv,2013-08-22 07:30:00,
2013-08-22 03:35:00,71.0,70.8,30.15,South,171,0.0,0.0,99,0.00,,,0.00,dv,2013-08-22 07:35:00,
2013-08-22 03:40:00,71.1,71.1,30.15,South,171,0.0,0.0,100,0.00,,,0.00,dv,2013-08-22 07:40:00,
2013-08-22 03:45:00,71.0,70.8,30.15,South,171,0.0,0.0,99,0.00,,,0.00,dv,2013-08-22 07:45:00,
2013-08-22 03:50:00,70.9,70.7,30.15,South,171,0.0,0.0,99,0.00,,,0.00,dv,2013-08-22 07:50:00,
2013-08-22 03:55:00,70.8,70.8,30.15,South,171,0.0,0.0,100,0.00,,,0.00,dv,2013-08-22 07:55:00,
2013-08-22 04:00:00,70.8,70.8,30.15,South,171,0.0,0.0,100,0.00,,,0.00,dv,2013-08-22 08:00:00,
2013-08-22 04:05:00,70.8,70.6,30.15,South,171,0.0,0.0,99,0.00,,,0.00,dv,2013-08-22 08:05:00,
2013-08-22 04:10:00,70.8,70.6,30.15,South,171,0.0,0.0,99,0.00,,,0.00,dv,2013-08-22 08:10:00,
2013-08-22 04:15:00,70.6,70.4,30.14,South,171,0.0,0.0,99,0.00,,,0.00,dv,2013-08-22 08:15:00,
2013-08-22 04:20:00,70.6,70.4,30.15,South,171,0.0,0.0,99,0.00,,,0.00,dv,2013-08-22 08:20:00,
2013-08-22 04:25:00,70.5,70.3,30.15,South,171,0.0,0.0,99,0.00,,,0.00,dv,2013-08-22 08:25:00,
2013-08-22 04:30:00,70.4,70.2,30.14,South,171,0.0,0.0,99,0.00,,,0.00,dv,2013-08-22 08:30:00,
2013-08-22 04:35:00,70.3,70.1,30.15,South,171,0.0,0.0,99,0.00,,,0.00,dv,2013-08-22 08:35:00,
2013-08-22 04:40:00,70.3,69.8,30.14,South,171,0.0,0.0,98,0.00,,,0.00,dv,2013-08-22 08:40:00,
2013-08-22 04:45:00,70.1,69.9,30.14,South,170,0.0,0.0,99,0.00,,,0.00,dv,2013-08-22 08:45:00,
2013-08-22 04:50:00,70.2,70.0,30.14,South,171,0.0,0.0,99,0.00,,,0.00,dv,2013-08-22 08:50:00,
2013-08-22 04:55:00,70.1,69.9,30.14,South,171,0.0,0.0,99,0.00,,,0.00,dv,2013-08-22 08:55:00,
2013-08-22 05:00:00,69.9,69.7,30.14,South,171,0.0,0.0,99,0.00,,,0.00,dv,2013-08-22 09:00:00,
2013-08-22 05:05:00,70.0,69.8,30.14,South,171,0.0,0.0,99,0.00,,,0.00,dv,2013-08-22 09:05:00,
2013-08-22 05:10:00,69.9,69.7,30.14,South,171,0.0,0.0,99,0.00,,,0.00,dv,2013-08-22 09:10:00,
2013-08-22 05:15:00,69.9,69.7,30.14,South,171,0.0,0.0,99,0.00,,,0.00,dv,2013-08-22 09:15:00,
2013-08-22 05:20:00,69.8,69.6,30.14,South,171,0.0,0.0,99,0.00,,,0.00,dv,2013-08-22 09:20:00,
2013-08-22 05:25:00,69.8,69.6,30.14,South,171,0.0,0.0,99,0.00,,,0.00,dv,2013-08-22 09:25:00,
2013-08-22 05:30:00,69.8,69.6,30.14,South,171,0.0,0.0,99,0.00,,,0.00,dv,2013-08-22 09:30:00,
2013-08-22 05:35:00,69.8,69.6,30.14,South,171,0.0,0.0,99,0.00,,,0.00,dv,2013-08-22 09:35:00,
2013-08-22 05:40:00,69.7,69.5,30.15,South,171,0.0,0.0,99,0.00,,,0.00,dv,2013-08-22 09:40:00,
2013-08-22 05:45:00,69.8,69.6,30.15,South,171,0.0,0.0,99,0.00,,,0.00,dv,2013-08-22 09:45:00,
2013-08-22 05:50:00,69.8,69.6,30.14,South,171,0.0,0.0,99,0.00,,,0.00,dv,2013-08-22 09:50:00,
2013-08-22 05:55:00,69.8,69.8,30.14,South,171,0.0,0.0,100,0.00,,,0.00,dv,2013-08-22 09:55:00,
2013-08-22 06:00:00,69.9,69.9,30.14,South,171,0.0,0.0,100,0.00,,,0.00,dv,2013-08-22 10:00:00,
2013-08-22 06:05:00,69.9,69.9,30.14,South,171,0.0,0.0,100,0.00,,,0.00,dv,2013-08-22 10:05:00,
2013-08-22 06:10:00,69.8,69.8,30.14,South,171,0.0,0.0,100,0.00,,,0.00,dv,2013-08-22 10:10:00,
2013-08-22 06:15:00,69.9,69.9,30.14,South,171,0.0,0.0,100,0.00,,,0.00,dv,2013-08-22 10:15:00,
2013-08-22 06:20:00,69.9,69.9,30.14,South,170,0.0,0.0,100,0.00,,,0.00,dv,2013-08-22 10:20:00,
2013-08-22 06:25:00,69.8,69.8,30.15,South,171,0.0,0.0,100,0.00,,,0.00,dv,2013-08-22 10:25:00,
2013-08-22 06:30:00,69.8,69.8,30.15,South,171,0.0,0.0,100,0.00,,,0.00,dv,2013-08-22 10:30:00,
2013-08-22 06:35:00,69.7,69.7,30.15,South,171,0.0,0.0,100,0.00,,,0.00,dv,2013-08-22 10:35:00,
2013-08-22 06:40:00,69.7,69.5,30.15,South,171,0.0,0.0,99,0.00,,,0.00,dv,2013-08-22 10:40:00,
2013-08-22 06:45:00,69.7,69.7,30.15,South,171,0.0,0.0,100,0.00,,,0.00,dv,2013-08-22 10:45:00,
2013-08-22 06:50:00,69.7,69.7,30.15,South,171,0.0,0.0,100,0.00,,,0.00,dv,2013-08-22 10:50:00,
2013-08-22 08:27:00,69.5,69.5,30.17,South,171,0.0,0.0,100,0.00,,,0.00,dv,2013-08-22 12:27:00,
2013-08-22 08:35:00,69.8,69.8,30.16,South,171,0.0,0.0,100,0.00,,,0.00,dv,2013-08-22 12:35:00,
2013-08-22 08:40:00,69.8,69.8,30.17,South,171,0.0,0.0,100,0.00,,,0.00,dv,2013-08-22 12:40:00,
2013-08-22 08:45:00,69.8,69.8,30.17,South,171,0.0,0.0,100,0.00,,,0.00,dv,2013-08-22 12:45:00,
2013-08-22 08:50:00,69.9,69.9,30.17,South,171,0.0,0.0,100,0.00,,,0.00,dv,2013-08-22 12:50:00,
2013-08-22 08:55:00,70.1,70.1,30.16,South,171,0.0,0.0,100,0.00,,,0.00,dv,2013-08-22 12:55:00,
2013-08-22 09:00:00,70.1,70.1,30.17,South,171,0.0,0.0,100,0.00,,,0.00,dv,2013-08-22 13:00:00,
2013-08-22 09:05:00,70.1,70.1,30.17,South,171,0.0,0.0,100,0.00,,,0.00,dv,2013-08-22 13:05:00,
2013-08-22 09:10:00,70.4,70.4,30.17,South,171,0.0,0.0,100,0.00,,,0.00,dv,2013-08-22 13:10:00,
2013-08-22 09:15:00,70.5,70.5,30.17,South,171,0.0,0.0,100,0.00,,,0.00,dv,2013-08-22 13:15:00,
2013-08-22 09:20:00,70.8,70.8,30.17,South,171,0.0,0.0,100,0.00,,,0.00,dv,2013-08-22 13:20:00,
2013-08-22 09:25:00,71.0,71.0,30.17,South,171,1.6,1.6,100,0.00,,,0.00,dv,2013-08-22 13:25:00,
2013-08-22 09:30:00,71.2,71.2,30.17,South,171,0.0,0.0,100,0.00,,,0.00,dv,2013-08-22 13:30:00,
2013-08-22 09:35:00,71.3,71.3,30.16,South,171,0.0,0.0,100,0.00,,,0.00,dv,2013-08-22 13:35:00,
2013-08-22 09:40:00,71.5,71.5,30.16,South,171,0.0,0.0,100,0.00,,,0.00,dv,2013-08-22 13:40:00,
2013-08-22 09:45:00,71.6,71.6,30.17,South,171,0.0,0.0,100,0.00,,,0.00,dv,2013-08-22 13:45:00,
2013-08-22 09:50:00,71.6,71.6,30.17,South,171,0.0,0.0,100,0.00,,,0.00,dv,2013-08-22 13:50:00,
2013-08-22 09:55:00,71.8,71.8,30.16,South,170,0.0,0.0,100,0.00,,,0.00,dv,2013-08-22 13:55:00,
2013-08-22 10:00:00,71.9,71.9,30.16,South,171,1.6,1.6,100,0.00,,,0.00,dv,2013-08-22 14:00:00,
2013-08-22 10:05:00,72.0,72.0,30.16,South,171,0.0,0.0,100,0.00,,,0.00,dv,2013-08-22 14:05:00,
2013-08-22 10:10:00,72.2,72.2,30.16,South,171,0.0,0.0,100,0.00,,,0.00,dv,2013-08-22 14:10:00,
2013-08-22 10:15:00,72.3,72.3,30.16,South,171,0.0,0.0,100,0.00,,,0.00,dv,2013-08-22 14:15:00,
2013-08-22 10:20:00,72.6,72.6,30.16,South,171,0.0,0.0,100,0.00,,,0.00,dv,2013-08-22 14:20:00,
2013-08-22 10:25:00,72.7,72.7,30.16,South,171,0.0,0.0,100,0.00,,,0.00,dv,2013-08-22 14:25:00,
2013-08-22 10:30:00,72.9,72.9,30.16,South,171,0.0,0.0,100,0.00,,,0.00,dv,2013-08-22 14:30:00,
2013-08-22 10:35:00,73.0,73.0,30.16,South,171,0.0,0.0,100,0.00,,,0.00,dv,2013-08-22 14:35:00,
2013-08-22 10:40:00,73.2,73.2,30.15,South,171,0.0,0.0,100,0.00,,,0.00,dv,2013-08-22 14:40:00,
2013-08-22 10:45:00,73.4,73.2,30.16,South,171,0.0,0.0,99,0.00,,,0.00,dv,2013-08-22 14:45:00,
2013-08-22 10:50:00,73.7,73.2,30.16,WNW,303,1.6,1.6,98,0.00,,,0.00,dv,2013-08-22 14:50:00,
2013-08-22 10:55:00,74.0,73.3,30.16,WNW,303,1.6,1.6,97,0.00,,,0.00,dv,2013-08-22 14:55:00,
2013-08-22 11:00:00,74.3,73.4,30.16,WNW,302,1.6,1.6,96,0.00,,,0.00,dv,2013-08-22 15:00:00,
2013-08-22 11:05:00,74.5,73.3,30.16,WNW,301,1.6,1.6,95,0.00,,,0.00,dv,2013-08-22 15:05:00,
2013-08-22 11:10:00,74.6,72.7,30.15,NW,309,0.0,0.0,92,0.00,,,0.00,dv,2013-08-22 15:10:00,
2013-08-22 11:15:00,74.9,73.0,30.15,NW,309,0.0,0.0,92,0.00,,,0.00,dv,2013-08-22 15:15:00,
2013-08-22 11:20:00,75.4,73.2,30.15,NW,309,0.0,0.0,91,0.00,,,0.00,dv,2013-08-22 15:20:00,
2013-08-22 11:25:00,75.8,73.6,30.14,NW,309,0.0,0.0,91,0.00,,,0.00,dv,2013-08-22 15:25:00,
2013-08-22 11:30:00,76.1,74.1,30.15,NW,309,1.6,1.6,92,0.00,,,0.00,dv,2013-08-22 15:30:00,
2013-08-22 11:35:00,76.4,73.9,30.15,WNW,298,3.2,3.2,90,0.00,,,0.00,dv,2013-08-22 15:35:00,
2013-08-22 11:40:00,76.6,73.8,30.15,WNW,298,0.0,0.0,89,0.00,,,0.00,dv,2013-08-22 15:40:00,
2013-08-22 11:45:00,76.7,73.1,30.15,SSW,205,1.6,1.6,86,0.00,,,0.00,dv,2013-08-22 15:45:00,
2013-08-22 11:50:00,77.0,73.4,30.15,SSW,205,0.0,0.0,86,0.00,,,0.00,dv,2013-08-22 15:50:00,
2013-08-22 11:55:00,77.2,73.6,30.15,SSW,204,0.0,0.0,86,0.00,,,0.00,dv,2013-08-22 15:55:00,
2013-08-22 12:00:00,77.5,73.7,30.15,WNW,303,4.8,4.8,85,0.00,,,0.00,dv,2013-08-22 16:00:00,
2013-08-22 12:05:00,77.8,73.7,30.15,West,268,1.6,1.6,84,0.00,,,0.00,dv,2013-08-22 16:05:00,
2013-08-22 12:10:00,78.0,73.6,30.15,West,268,1.6,1.6,83,0.00,,,0.00,dv,2013-08-22 16:10:00,
2013-08-22 12:15:00,78.3,73.3,30.15,West,268,1.6,1.6,81,0.00,,,0.00,dv,2013-08-22 16:15:00,
2013-08-22 12:20:00,78.6,74.2,30.15,West,268,0.0,0.0,83,0.00,,,0.00,dv,2013-08-22 16:20:00,
2013-08-22 12:25:00,78.6,73.6,30.14,West,267,0.0,0.0,81,0.00,,,0.00,dv,2013-08-22 16:25:00,
2013-08-22 12:30:00,78.8,74.4,30.15,West,268,0.0,0.0,83,0.00,,,0.00,dv,2013-08-22 16:30:00,
2013-08-22 12:35:00,78.8,74.1,30.14,West,268,0.0,0.0,82,0.00,,,0.00,dv,2013-08-22 16:35:00,
2013-08-22 12:40:00,78.8,74.1,30.14,West,268,0.0,0.0,82,0.00,,,0.00,dv,2013-08-22 16:40:00,
2013-08-22 12:45:00,78.8,73.5,30.14,West,268,0.0,0.0,80,0.00,,,0.00,dv,2013-08-22 16:45:00,
2013-08-22 12:50:00,79.3,73.7,30.13,West,268,0.0,0.0,79,0.00,,,0.00,dv,2013-08-22 16:50:00,
2013-08-22 12:55:00,79.5,73.3,30.13,West,268,1.6,1.6,77,0.00,,,0.00,dv,2013-08-22 16:55:00,
2013-08-22 13:00:00,80.0,74.1,30.13,West,268,1.6,1.6,78,0.00,,,0.00,dv,2013-08-22 17:00:00,
2013-08-22 13:10:00,80.3,74.3,30.12,West,268,1.6,1.6,78,0.00,,,0.00,dv,2013-08-22 17:10:00,
2013-08-22 13:15:00,80.4,73.8,30.12,WSW,256,1.6,1.6,76,0.00,,,0.00,dv,2013-08-22 17:15:00,
2013-08-22 13:20:00,80.8,73.6,30.12,WSW,252,3.2,3.2,74,0.00,,,0.00,dv,2013-08-22 17:20:00,
2013-08-22 13:25:00,81.3,74.7,30.12,WSW,255,3.2,3.2,76,0.00,,,0.00,dv,2013-08-22 17:25:00,
2013-08-22 13:30:00,81.7,75.1,30.11,NW,308,1.6,1.6,76,0.00,,,0.00,dv,2013-08-22 17:30:00,
2013-08-22 13:35:00,81.8,74.9,30.11,WNW,303,0.0,0.0,75,0.00,,,0.00,dv,2013-08-22 17:35:00,
2013-08-22 13:40:00,81.9,75.0,30.11,NNE,33,1.6,1.6,75,0.00,,,0.00,dv,2013-08-22 17:40:00,
2013-08-22 13:45:00,82.1,74.8,30.10,NE,49,1.6,1.6,74,0.00,,,0.00,dv,2013-08-22 17:45:00,
2013-08-22 13:50:00,82.3,75.0,30.11,NE,48,0.0,0.0,74,0.00,,,0.00,dv,2013-08-22 17:50:00,
2013-08-22 13:55:00,82.4,74.8,30.11,NE,52,1.6,1.6,73,0.00,,,0.00,dv,2013-08-22 17:55:00,
2013-08-22 14:00:00,82.6,75.0,30.11,NE,54,1.6,1.6,73,0.00,,,0.00,dv,2013-08-22 18:00:00,
2013-08-22 14:05:00,82.6,74.0,30.10,NE,56,1.6,1.6,70,0.00,,,0.00,dv,2013-08-22 18:05:00,
2013-08-22 14:10:00,82.7,74.1,30.10,NE,56,1.6,1.6,70,0.00,,,0.00,dv,2013-08-22 18:10:00,
2013-08-22 14:15:00,82.7,73.4,30.09,NE,56,0.0,0.0,68,0.00,,,0.00,dv,2013-08-22 18:15:00,
2013-08-22 14:20:00,82.8,74.2,30.09,North,0,3.2,3.2,70,0.00,,,0.00,dv,2013-08-22 18:20:00,
2013-08-22 14:25:00,83.0,74.4,30.08,NW,325,3.2,3.2,70,0.00,,,0.00,dv,2013-08-22 18:25:00,
2013-08-22 14:30:00,83.2,74.6,30.09,WNW,297,4.8,4.8,70,0.00,,,0.00,dv,2013-08-22 18:30:00,
2013-08-22 14:35:00,83.3,74.7,30.08,WNW,282,0.0,0.0,70,0.00,,,0.00,dv,2013-08-22 18:35:00,
2013-08-22 14:40:00,83.2,74.2,30.08,WNW,284,0.0,0.0,69,0.00,,,0.00,dv,2013-08-22 18:40:00,
2013-08-22 14:45:00,83.1,74.5,30.08,WNW,284,1.6,1.6,70,0.00,,,0.00,dv,2013-08-22 18:45:00,
2013-08-22 14:50:00,82.8,74.8,30.07,WNW,283,0.0,0.0,72,0.00,,,0.00,dv,2013-08-22 18:50:00,
2013-08-22 14:55:00,82.5,74.9,30.08,WNW,284,0.0,0.0,73,0.00,,,0.00,dv,2013-08-22 18:55:00,
2013-08-22 15:00:00,82.1,75.1,30.08,WNW,284,0.0,0.0,75,0.00,,,0.00,dv,2013-08-22 19:00:00,
2013-08-22 15:05:00,81.3,74.7,30.08,WNW,283,4.8,4.8,76,0.00,,,0.00,dv,2013-08-22 19:05:00,
2013-08-22 15:10:00,80.6,74.9,30.08,West,266,1.6,1.6,79,0.01,,,0.01,dv,2013-08-22 19:10:00,
2013-08-22 15:15:00,80.0,74.4,30.08,West,265,0.0,0.0,79,0.01,,,0.01,dv,2013-08-22 19:15:00,
2013-08-22 15:20:00,79.3,74.0,30.08,West,265,1.6,1.6,80,0.01,,,0.01,dv,2013-08-22 19:20:00,
2013-08-22 15:30:00,77.6,73.2,30.08,West,265,0.0,0.0,83,0.04,,,0.04,dv,2013-08-22 19:30:00,
2013-08-22 15:40:00,76.3,72.2,30.09,West,265,1.6,1.6,84,0.07,,,0.07,dv,2013-08-22 19:40:00,
2013-08-22 15:45:00,75.4,71.9,30.09,NE,47,4.8,4.8,86,0.12,,,0.12,dv,2013-08-22 19:45:00,
2013-08-22 15:50:00,74.5,71.0,30.08,NE,46,0.0,0.0,86,0.17,,,0.17,dv,2013-08-22 19:50:00,
2013-08-22 16:00:00,73.1,69.6,30.07,ENE,63,3.2,3.2,86,0.32,,,0.32,dv,2013-08-22 20:00:00,
2013-08-22 16:05:00,72.5,69.3,30.08,ENE,63,0.0,0.0,87,0.37,,,0.37,dv,2013-08-22 20:05:00,
2013-08-22 16:10:00,72.2,69.5,30.07,ENE,63,0.0,0.0,89,0.39,,,0.40,dv,2013-08-22 20:10:00,
2013-08-22 16:15:00,72.1,69.9,30.06,ENE,66,0.0,0.0,91,0.40,,,0.41,dv,2013-08-22 20:15:00,
2013-08-22 16:20:00,71.8,69.9,30.07,ENE,70,0.0,0.0,92,0.40,,,0.41,dv,2013-08-22 20:20:00,
2013-08-22 16:25:00,71.7,70.0,30.07,ESE,109,0.0,0.0,93,0.39,,,0.41,dv,2013-08-22 20:25:00,
2013-08-22 16:30:00,71.8,70.4,30.07,ESE,110,0.0,0.0,94,0.38,,,0.42,dv,2013-08-22 20:30:00,
2013-08-22 16:35:00,72.1,70.7,30.07,ESE,109,0.0,0.0,94,0.36,,,0.42,dv,2013-08-22 20:35:00,
2013-08-22 16:40:00,72.0,70.8,30.07,SE,134,0.0,0.0,95,0.35,,,0.42,dv,2013-08-22 20:40:00,
2013-08-22 16:45:00,72.1,70.9,30.08,South,178,0.0,0.0,95,0.30,,,0.42,dv,2013-08-22 20:45:00,
2013-08-22 16:50:00,72.0,70.8,30.08,SSE,167,0.0,0.0,95,0.25,,,0.42,dv,2013-08-22 20:50:00,
2013-08-22 16:55:00,72.4,71.5,30.08,SSW,197,0.0,0.0,96,0.20,,,0.42,dv,2013-08-22 20:55:00,
2013-08-22 17:00:00,72.7,71.8,30.08,SSW,204,0.0,0.0,96,0.10,,,0.42,dv,2013-08-22 21:00:00,
2013-08-22 17:05:00,72.6,71.9,30.09,SW,218,0.0,0.0,97,0.05,,,0.42,dv,2013-08-22 21:05:00,
2013-08-22 17:10:00,72.6,71.9,30.09,WSW,257,0.0,0.0,97,0.02,,,0.42,dv,2013-08-22 21:10:00,
2013-08-22 17:15:00,72.2,71.0,30.09,WSW,243,4.8,4.8,95,0.01,,,0.42,dv,2013-08-22 21:15:00,
2013-08-22 17:20:00,71.8,70.6,30.09,West,277,4.8,4.8,95,0.01,,,0.42,dv,2013-08-22 21:20:00,
2013-08-22 17:25:00,71.5,70.1,30.08,West,272,6.4,6.4,94,0.01,,,0.42,dv,2013-08-22 21:25:00,
2013-08-22 17:30:00,71.1,69.9,30.07,West,263,8.1,8.1,95,0.06,,,0.48,dv,2013-08-22 21:30:00,
2013-08-22 17:35:00,71.1,69.9,30.06,ENE,61,6.4,6.4,95,0.07,,,0.49,dv,2013-08-22 21:35:00,
2013-08-22 17:40:00,71.0,70.1,30.07,ENE,61,0.0,0.0,96,0.07,,,0.49,dv,2013-08-22 21:40:00,
2013-08-22 17:45:00,70.8,69.9,30.06,NE,48,1.6,1.6,96,0.07,,,0.49,dv,2013-08-22 21:45:00,
2013-08-22 17:50:00,70.6,69.7,30.06,NW,306,3.2,3.2,96,0.07,,,0.49,dv,2013-08-22 21:50:00,
2013-08-22 17:55:00,70.6,69.7,30.06,NW,306,1.6,1.6,96,0.07,,,0.49,dv,2013-08-22 21:55:00,
2013-08-22 18:00:00,70.5,69.6,30.06,NW,306,0.0,0.0,96,0.07,,,0.49,dv,2013-08-22 22:00:00,
2013-08-22 18:05:00,70.3,69.4,30.06,NW,305,0.0,0.0,96,0.08,,,0.50,dv,2013-08-22 22:05:00,
2013-08-22 18:10:00,70.2,69.3,30.06,NW,306,0.0,0.0,96,0.08,,,0.50,dv,2013-08-22 22:10:00,
2013-08-22 18:15:00,70.3,69.4,30.07,NW,306,0.0,0.0,96,0.09,,,0.51,dv,2013-08-22 22:15:00,
2013-08-22 18:20:00,70.1,69.4,30.06,NW,306,1.6,1.6,97,0.10,,,0.52,dv,2013-08-22 22:20:00,
2013-08-22 18:25:00,70.1,69.4,30.06,NW,306,0.0,0.0,97,0.11,,,0.53,dv,2013-08-22 22:25:00,
2013-08-22 18:30:00,70.3,69.6,30.06,NW,306,0.0,0.0,97,0.05,,,0.53,dv,2013-08-22 22:30:00,
2013-08-22 18:35:00,70.1,69.4,30.06,NW,306,0.0,0.0,97,0.04,,,0.53,dv,2013-08-22 22:35:00,
2013-08-22 18:40:00,70.1,69.6,30.05,NW,306,0.0,0.0,98,0.04,,,0.53,dv,2013-08-22 22:40:00,
2013-08-22 18:45:00,70.1,69.6,30.06,NW,306,0.0,0.0,98,0.04,,,0.53,dv,2013-08-22 22:45:00,
2013-08-22 18:50:00,70.1,69.9,30.06,NW,306,0.0,0.0,99,0.04,,,0.53,dv,2013-08-22 22:50:00,
2013-08-22 18:55:00,70.1,69.9,30.06,NW,306,0.0,0.0,99,0.04,,,0.53,dv,2013-08-22 22:55:00,
2013-08-22 19:00:00,70.2,70.0,30.06,NW,304,0.0,0.0,99,0.04,,,0.53,dv,2013-08-22 23:00:00,
2013-08-22 19:05:00,70.3,70.1,30.06,NW,304,0.0,0.0,99,0.03,,,0.53,dv,2013-08-22 23:05:00,
2013-08-22 19:10:00,70.1,69.9,30.05,NW,305,0.0,0.0,99,0.03,,,0.53,dv,2013-08-22 23:10:00,
2013-08-22 19:15:00,70.2,70.0,30.06,NW,305,0.0,0.0,99,0.03,,,0.54,dv,2013-08-22 23:15:00,
2013-08-22 19:20:00,70.2,70.0,30.05,NW,305,0.0,0.0,99,0.02,,,0.54,dv,2013-08-22 23:20:00,
2013-08-22 19:25:00,70.2,70.0,30.05,NW,305,0.0,0.0,99,0.01,,,0.54,dv,2013-08-22 23:25:00,
2013-08-22 19:30:00,70.1,69.9,30.06,NW,305,0.0,0.0,99,0.01,,,0.54,dv,2013-08-22 23:30:00,
2013-08-22 19:35:00,70.0,69.8,30.05,NW,305,0.0,0.0,99,0.01,,,0.54,dv,2013-08-22 23:35:00,
2013-08-22 19:40:00,69.9,69.7,30.05,West,273,4.8,4.8,99,0.01,,,0.54,dv,2013-08-22 23:40:00,
2013-08-22 19:45:00,70.0,69.8,30.05,WNW,297,1.6,1.6,99,0.01,,,0.54,dv,2013-08-22 23:45:00,
2013-08-22 19:50:00,70.0,69.8,30.04,West,278,0.0,0.0,99,0.01,,,0.54,dv,2013-08-22 23:50:00,
2013-08-22 19:55:00,69.8,69.6,30.04,WSW,258,0.0,0.0,99,0.01,,,0.54,dv,2013-08-22 23:55:00,
2013-08-22 20:00:00,69.7,69.5,30.04,WSW,252,0.0,0.0,99,0.01,,,0.54,dv,2013-08-23 00:00:00,
2013-08-22 20:05:00,69.7,69.7,30.04,WSW,252,0.0,0.0,100,0.01,,,0.54,dv,2013-08-23 00:05:00,
2013-08-22 20:10:00,69.6,69.4,30.04,WSW,252,0.0,0.0,99,0.01,,,0.54,dv,2013-08-23 00:10:00,
2013-08-22 20:15:00,69.5,69.3,30.04,WSW,252,0.0,0.0,99,0.00,,,0.54,dv,2013-08-23 00:15:00,
2013-08-22 20:20:00,69.5,69.3,30.04,WSW,252,0.0,0.0,99,0.00,,,0.54,dv,2013-08-23 00:20:00,
2013-08-22 20:25:00,69.6,69.4,30.04,WSW,252,0.0,0.0,99,0.00,,,0.54,dv,2013-08-23 00:25:00,
2013-08-22 20:30:00,69.5,69.5,30.04,WSW,252,0.0,0.0,100,0.00,,,0.54,dv,2013-08-23 00:30:00,
2013-08-22 20:35:00,69.5,69.5,30.04,WSW,252,0.0,0.0,100,0.00,,,0.54,dv,2013-08-23 00:35:00,
2013-08-22 20:40:00,69.6,69.6,30.04,WSW,252,0.0,0.0,100,0.00,,,0.54,dv,2013-08-23 00:40:00,
2013-08-22 20:45:00,69.5,69.5,30.03,WSW,252,0.0,0.0,100,0.00,,,0.54,dv,2013-08-23 00:45:00,
2013-08-22 20:50:00,69.5,69.5,30.04,WSW,252,0.0,0.0,100,0.00,,,0.54,dv,2013-08-23 00:50:00,
2013-08-22 20:55:00,69.5,58.3,30.04,WSW,252,0.0,0.0,60,0.00,,,0.54,dv,2013-08-23 00:55:00,
2013-08-22 21:00:00,69.3,69.3,30.05,West,266,3.2,3.2,100,0.00,,,0.54,dv,2013-08-23 01:00:00,
2013-08-22 21:05:00,69.4,69.4,30.05,West,266,1.6,1.6,100,0.00,,,0.54,dv,2013-08-23 01:05:00,
2013-08-22 21:10:00,69.5,58.3,30.05,West,266,0.0,0.0,60,0.00,,,0.54,dv,2013-08-23 01:10:00,
2013-08-22 21:15:00,69.3,69.3,30.06,West,266,0.0,0.0,100,0.00,,,0.54,dv,2013-08-23 01:15:00,
2013-08-22 21:25:00,69.3,36.5,30.06,West,266,0.0,0.0,20,0.00,,,0.54,dv,2013-08-23 01:25:00,
2013-08-22 21:30:00,69.3,69.3,30.06,West,266,0.0,0.0,100,0.00,,,0.54,dv,2013-08-23 01:30:00,
2013-08-22 21:35:00,69.2,60.3,30.06,West,266,0.0,0.0,67,0.00,,,0.54,dv,2013-08-23 01:35:00,
2013-08-22 21:40:00,69.1,36.3,30.06,West,266,0.0,0.0,20,0.00,,,0.54,dv,2013-08-23 01:40:00,
2013-08-22 21:45:00,69.4,69.4,30.07,West,266,0.0,0.0,100,0.00,,,0.54,dv,2013-08-23 01:45:00,
2013-08-22 21:50:00,69.3,69.3,30.07,West,266,0.0,0.0,100,0.00,,,0.54,dv,2013-08-23 01:50:00,
2013-08-22 21:55:00,69.3,69.3,30.07,West,267,0.0,0.0,100,0.00,,,0.54,dv,2013-08-23 01:55:00,
2013-08-22 22:05:00,69.3,69.3,30.07,West,267,0.0,0.0,100,0.00,,,0.54,dv,2013-08-23 02:05:00,
2013-08-22 22:10:00,69.2,69.2,30.07,West,266,0.0,0.0,100,0.00,,,0.54,dv,2013-08-23 02:10:00,
2013-08-22 22:15:00,69.3,69.3,30.07,West,266,0.0,0.0,100,0.00,,,0.54,dv,2013-08-23 02:15:00,
2013-08-22 22:20:00,69.3,69.3,30.08,West,266,0.0,0.0,100,0.00,,,0.54,dv,2013-08-23 02:20:00,
2013-08-22 22:25:00,69.3,69.3,30.08,West,267,0.0,0.0,100,0.00,,,0.54,dv,2013-08-23 02:25:00,
2013-08-22 22:30:00,69.1,69.1,30.08,West,267,0.0,0.0,100,0.00,,,0.54,dv,2013-08-23 02:30:00,
2013-08-22 22:35:00,69.1,69.1,30.07,West,266,0.0,0.0,100,0.00,,,0.54,dv,2013-08-23 02:35:00,
2013-08-22 22:40:00,69.1,69.1,30.08,West,266,0.0,0.0,100,0.00,,,0.54,dv,2013-08-23 02:40:00,
2013-08-22 22:45:00,69.1,69.1,30.07,West,266,0.0,0.0,100,0.00,,,0.54,dv,2013-08-23 02:45:00,
2013-08-22 22:50:00,69.0,69.0,30.07,West,266,0.0,0.0,100,0.00,,,0.54,dv,2013-08-23 02:50:00,
2013-08-22 22:55:00,68.9,68.9,30.08,West,266,0.0,0.0,100,0.00,,,0.54,dv,2013-08-23 02:55:00,
2013-08-22 23:00:00,68.9,68.9,30.07,West,266,0.0,0.0,100,0.00,,,0.54,dv,2013-08-23 03:00:00,
2013-08-22 23:05:00,68.7,68.7,30.07,West,266,0.0,0.0,100,0.00,,,0.54,dv,2013-08-23 03:05:00,
2013-08-22 23:10:00,68.6,68.6,30.07,West,267,0.0,0.0,100,0.00,,,0.54,dv,2013-08-23 03:10:00,
2013-08-22 23:15:00,68.7,68.7,30.06,West,267,0.0,0.0,100,0.00,,,0.54,dv,2013-08-23 03:15:00,
2013-08-22 23:25:00,68.6,68.6,30.06,West,266,0.0,0.0,100,0.00,,,0.54,dv,2013-08-23 03:25:00,
2013-08-22 23:30:00,68.6,68.6,30.05,West,266,0.0,0.0,100,0.00,,,0.54,dv,2013-08-23 03:30:00,
2013-08-22 23:35:00,68.7,68.7,30.06,West,267,0.0,0.0,100,0.00,,,0.54,dv,2013-08-23 03:35:00,
2013-08-22 23:40:00,68.6,68.6,30.06,West,266,0.0,0.0,100,0.00,,,0.54,dv,2013-08-23 03:40:00,
2013-08-22 23:45:00,68.5,68.5,30.06,West,266,0.0,0.0,100,0.00,,,0.54,dv,2013-08-23 03:45:00,
2013-08-22 23:50:00,68.5,68.5,30.06,West,266,0.0,0.0,100,0.00,,,0.54,dv,2013-08-23 03:50:00,
2013-08-22 23:55:00,68.5,68.5,30.06,West,267,0.0,0.0,100,0.00,,,0.54,dv,2013-08-23 03:55:00,